sensor_id;sensor_type;location;lat;lon;timestamp;P1;durP1;ratioP1;P2;durP2;ratioP2
59300;SDS011;45073;52.740;6.784;2022-07-09T00:01:16;16.40;;;8.63;;
59300;SDS011;45073;52.740;6.784;2022-07-09T00:03:42;17.50;;;7.80;;
59300;SDS011;45073;52.740;6.784;2022-07-09T00:06:07;16.60;;;7.80;;
59300;SDS011;45073;52.740;6.784;2022-07-09T00:08:33;12.98;;;8.23;;
59300;SDS011;45073;52.740;6.784;2022-07-09T00:10:59;14.15;;;7.93;;
59300;SDS011;45073;52.740;6.784;2022-07-09T00:13:24;16.02;;;8.55;;
59300;SDS011;45073;52.740;6.784;2022-07-09T00:15:50;15.95;;;8.40;;
59300;SDS011;45073;52.740;6.784;2022-07-09T00:18:17;13.40;;;6.22;;
59300;SDS011;45073;52.740;6.784;2022-07-09T00:20:43;16.25;;;9.00;;
59300;SDS011;45073;52.740;6.784;2022-07-09T00:23:09;16.50;;;10.02;;
59300;SDS011;45073;52.740;6.784;2022-07-09T00:25:34;14.52;;;8.65;;
59300;SDS011;45073;52.740;6.784;2022-07-09T00:28:00;17.63;;;9.45;;
59300;SDS011;45073;52.740;6.784;2022-07-09T00:30:25;15.98;;;9.52;;
59300;SDS011;45073;52.740;6.784;2022-07-09T00:32:51;13.88;;;8.85;;
59300;SDS011;45073;52.740;6.784;2022-07-09T00:35:17;17.00;;;9.10;;
59300;SDS011;45073;52.740;6.784;2022-07-09T00:37:43;16.83;;;9.48;;
59300;SDS011;45073;52.740;6.784;2022-07-09T00:40:08;17.33;;;9.40;;
59300;SDS011;45073;52.740;6.784;2022-07-09T00:42:34;17.52;;;10.18;;
59300;SDS011;45073;52.740;6.784;2022-07-09T00:45:00;18.67;;;9.77;;
59300;SDS011;45073;52.740;6.784;2022-07-09T00:47:26;16.35;;;9.90;;
59300;SDS011;45073;52.740;6.784;2022-07-09T00:49:51;15.18;;;9.60;;
59300;SDS011;45073;52.740;6.784;2022-07-09T00:52:17;15.07;;;8.20;;
59300;SDS011;45073;52.740;6.784;2022-07-09T00:54:43;17.98;;;10.10;;
59300;SDS011;45073;52.740;6.784;2022-07-09T00:57:10;17.50;;;9.38;;
59300;SDS011;45073;52.740;6.784;2022-07-09T00:59:37;15.00;;;8.82;;
59300;SDS011;45073;52.740;6.784;2022-07-09T01:02:04;16.90;;;6.88;;
59300;SDS011;45073;52.740;6.784;2022-07-09T01:04:34;15.77;;;8.68;;
59300;SDS011;45073;52.740;6.784;2022-07-09T01:07:00;16.33;;;8.48;;
59300;SDS011;45073;52.740;6.784;2022-07-09T01:09:26;17.50;;;8.68;;
59300;SDS011;45073;52.740;6.784;2022-07-09T01:11:53;16.88;;;8.02;;
59300;SDS011;45073;52.740;6.784;2022-07-09T01:14:19;17.65;;;7.97;;
59300;SDS011;45073;52.740;6.784;2022-07-09T01:16:45;15.82;;;7.95;;
59300;SDS011;45073;52.740;6.784;2022-07-09T01:19:10;19.95;;;8.27;;
59300;SDS011;45073;52.740;6.784;2022-07-09T01:21:36;17.00;;;8.32;;
59300;SDS011;45073;52.740;6.784;2022-07-09T01:24:01;17.88;;;6.95;;
59300;SDS011;45073;52.740;6.784;2022-07-09T01:26:27;19.35;;;8.38;;
59300;SDS011;45073;52.740;6.784;2022-07-09T01:28:53;17.90;;;8.35;;
59300;SDS011;45073;52.740;6.784;2022-07-09T01:31:19;17.25;;;8.38;;
59300;SDS011;45073;52.740;6.784;2022-07-09T01:33:45;19.25;;;9.55;;
59300;SDS011;45073;52.740;6.784;2022-07-09T01:36:11;18.55;;;8.68;;
59300;SDS011;45073;52.740;6.784;2022-07-09T01:38:36;17.73;;;8.95;;
59300;SDS011;45073;52.740;6.784;2022-07-09T01:41:02;23.77;;;7.07;;
59300;SDS011;45073;52.740;6.784;2022-07-09T01:43:28;16.52;;;8.68;;
59300;SDS011;45073;52.740;6.784;2022-07-09T01:45:55;17.50;;;7.15;;
59300;SDS011;45073;52.740;6.784;2022-07-09T01:48:21;16.60;;;9.27;;
59300;SDS011;45073;52.740;6.784;2022-07-09T01:50:47;14.10;;;6.95;;
59300;SDS011;45073;52.740;6.784;2022-07-09T01:53:13;18.30;;;10.15;;
59300;SDS011;45073;52.740;6.784;2022-07-09T01:55:39;18.42;;;10.07;;
59300;SDS011;45073;52.740;6.784;2022-07-09T01:58:04;17.55;;;10.35;;
59300;SDS011;45073;52.740;6.784;2022-07-09T02:00:30;16.10;;;10.82;;
59300;SDS011;45073;52.740;6.784;2022-07-09T02:02:56;21.98;;;12.52;;
59300;SDS011;45073;52.740;6.784;2022-07-09T02:05:22;18.08;;;11.82;;
59300;SDS011;45073;52.740;6.784;2022-07-09T02:07:48;20.38;;;11.63;;
59300;SDS011;45073;52.740;6.784;2022-07-09T02:10:14;15.73;;;11.27;;
59300;SDS011;45073;52.740;6.784;2022-07-09T02:12:40;17.05;;;9.30;;
59300;SDS011;45073;52.740;6.784;2022-07-09T02:15:06;20.85;;;12.18;;
59300;SDS011;45073;52.740;6.784;2022-07-09T02:17:33;21.00;;;12.52;;
59300;SDS011;45073;52.740;6.784;2022-07-09T02:19:59;21.45;;;11.95;;
59300;SDS011;45073;52.740;6.784;2022-07-09T02:22:25;17.73;;;8.98;;
59300;SDS011;45073;52.740;6.784;2022-07-09T02:24:50;20.58;;;12.65;;
59300;SDS011;45073;52.740;6.784;2022-07-09T02:27:16;22.10;;;14.43;;
59300;SDS011;45073;52.740;6.784;2022-07-09T02:29:41;21.38;;;10.10;;
59300;SDS011;45073;52.740;6.784;2022-07-09T02:32:07;20.77;;;14.00;;
59300;SDS011;45073;52.740;6.784;2022-07-09T02:34:35;21.20;;;13.50;;
59300;SDS011;45073;52.740;6.784;2022-07-09T02:37:02;19.60;;;11.07;;
59300;SDS011;45073;52.740;6.784;2022-07-09T02:39:28;20.83;;;13.90;;
59300;SDS011;45073;52.740;6.784;2022-07-09T02:41:54;22.40;;;14.57;;
59300;SDS011;45073;52.740;6.784;2022-07-09T02:44:19;17.08;;;10.48;;
59300;SDS011;45073;52.740;6.784;2022-07-09T02:46:45;23.85;;;15.27;;
59300;SDS011;45073;52.740;6.784;2022-07-09T02:49:10;18.92;;;14.15;;
59300;SDS011;45073;52.740;6.784;2022-07-09T02:51:36;20.65;;;15.10;;
59300;SDS011;45073;52.740;6.784;2022-07-09T02:54:02;21.33;;;14.77;;
59300;SDS011;45073;52.740;6.784;2022-07-09T02:56:28;22.52;;;14.82;;
59300;SDS011;45073;52.740;6.784;2022-07-09T02:58:54;20.17;;;14.85;;
59300;SDS011;45073;52.740;6.784;2022-07-09T03:01:19;20.67;;;14.77;;
59300;SDS011;45073;52.740;6.784;2022-07-09T03:03:45;17.65;;;10.07;;
59300;SDS011;45073;52.740;6.784;2022-07-09T03:06:11;20.52;;;13.80;;
59300;SDS011;45073;52.740;6.784;2022-07-09T03:08:37;18.50;;;13.25;;
59300;SDS011;45073;52.740;6.784;2022-07-09T03:11:04;17.92;;;9.40;;
59300;SDS011;45073;52.740;6.784;2022-07-09T03:13:31;17.25;;;12.52;;
59300;SDS011;45073;52.740;6.784;2022-07-09T03:15:58;18.30;;;13.35;;
59300;SDS011;45073;52.740;6.784;2022-07-09T03:18:24;18.10;;;9.73;;
59300;SDS011;45073;52.740;6.784;2022-07-09T03:20:49;16.65;;;13.35;;
59300;SDS011;45073;52.740;6.784;2022-07-09T03:23:15;14.85;;;8.88;;
59300;SDS011;45073;52.740;6.784;2022-07-09T03:25:41;19.40;;;13.68;;
59300;SDS011;45073;52.740;6.784;2022-07-09T03:28:08;15.65;;;10.15;;
59300;SDS011;45073;52.740;6.784;2022-07-09T03:30:34;21.25;;;14.00;;
59300;SDS011;45073;52.740;6.784;2022-07-09T03:33:00;17.25;;;9.32;;
59300;SDS011;45073;52.740;6.784;2022-07-09T03:35:25;20.45;;;12.95;;
59300;SDS011;45073;52.740;6.784;2022-07-09T03:37:51;18.17;;;12.35;;
59300;SDS011;45073;52.740;6.784;2022-07-09T03:40:16;18.63;;;13.13;;
59300;SDS011;45073;52.740;6.784;2022-07-09T03:42:42;19.42;;;13.13;;
59300;SDS011;45073;52.740;6.784;2022-07-09T03:45:07;19.85;;;13.40;;
59300;SDS011;45073;52.740;6.784;2022-07-09T03:47:33;21.65;;;9.73;;
59300;SDS011;45073;52.740;6.784;2022-07-09T03:49:59;19.52;;;13.27;;
59300;SDS011;45073;52.740;6.784;2022-07-09T03:52:24;17.52;;;9.88;;
59300;SDS011;45073;52.740;6.784;2022-07-09T03:54:50;19.08;;;13.48;;
59300;SDS011;45073;52.740;6.784;2022-07-09T03:57:15;19.48;;;9.32;;
59300;SDS011;45073;52.740;6.784;2022-07-09T03:59:41;19.67;;;13.07;;
59300;SDS011;45073;52.740;6.784;2022-07-09T04:02:06;18.95;;;10.27;;
59300;SDS011;45073;52.740;6.784;2022-07-09T04:04:32;21.35;;;13.40;;
59300;SDS011;45073;52.740;6.784;2022-07-09T04:06:58;16.65;;;9.73;;
59300;SDS011;45073;52.740;6.784;2022-07-09T04:09:23;22.98;;;13.90;;
59300;SDS011;45073;52.740;6.784;2022-07-09T04:11:49;17.20;;;9.23;;
59300;SDS011;45073;52.740;6.784;2022-07-09T04:14:14;20.38;;;13.50;;
59300;SDS011;45073;52.740;6.784;2022-07-09T04:16:40;20.05;;;13.90;;
59300;SDS011;45073;52.740;6.784;2022-07-09T04:19:06;18.90;;;13.05;;
59300;SDS011;45073;52.740;6.784;2022-07-09T04:21:32;18.02;;;10.52;;
59300;SDS011;45073;52.740;6.784;2022-07-09T04:23:58;20.92;;;13.63;;
59300;SDS011;45073;52.740;6.784;2022-07-09T04:26:23;18.45;;;13.32;;
59300;SDS011;45073;52.740;6.784;2022-07-09T04:28:49;19.63;;;14.10;;
59300;SDS011;45073;52.740;6.784;2022-07-09T04:31:15;16.77;;;9.63;;
59300;SDS011;45073;52.740;6.784;2022-07-09T04:33:41;20.65;;;14.10;;
59300;SDS011;45073;52.740;6.784;2022-07-09T04:36:08;20.65;;;13.77;;
59300;SDS011;45073;52.740;6.784;2022-07-09T04:38:33;18.13;;;10.10;;
59300;SDS011;45073;52.740;6.784;2022-07-09T04:40:59;21.08;;;14.52;;
59300;SDS011;45073;52.740;6.784;2022-07-09T04:43:24;19.25;;;10.45;;
59300;SDS011;45073;52.740;6.784;2022-07-09T04:45:50;21.95;;;14.13;;
59300;SDS011;45073;52.740;6.784;2022-07-09T04:48:15;18.33;;;13.20;;
59300;SDS011;45073;52.740;6.784;2022-07-09T04:50:41;21.33;;;13.88;;
59300;SDS011;45073;52.740;6.784;2022-07-09T04:53:06;18.45;;;13.15;;
59300;SDS011;45073;52.740;6.784;2022-07-09T04:55:32;16.85;;;10.15;;
59300;SDS011;45073;52.740;6.784;2022-07-09T04:57:58;21.48;;;13.85;;
59300;SDS011;45073;52.740;6.784;2022-07-09T05:00:23;21.02;;;13.93;;
59300;SDS011;45073;52.740;6.784;2022-07-09T05:02:49;23.10;;;14.27;;
59300;SDS011;45073;52.740;6.784;2022-07-09T05:05:14;17.75;;;9.75;;
59300;SDS011;45073;52.740;6.784;2022-07-09T05:07:40;21.05;;;13.90;;
59300;SDS011;45073;52.740;6.784;2022-07-09T05:10:07;22.92;;;13.98;;
59300;SDS011;45073;52.740;6.784;2022-07-09T05:12:34;18.98;;;13.95;;
59300;SDS011;45073;52.740;6.784;2022-07-09T05:14:59;18.23;;;13.07;;
59300;SDS011;45073;52.740;6.784;2022-07-09T05:17:25;19.70;;;13.30;;
59300;SDS011;45073;52.740;6.784;2022-07-09T05:19:51;16.38;;;9.25;;
59300;SDS011;45073;52.740;6.784;2022-07-09T05:22:16;18.10;;;13.32;;
59300;SDS011;45073;52.740;6.784;2022-07-09T05:24:42;20.05;;;12.73;;
59300;SDS011;45073;52.740;6.784;2022-07-09T05:27:08;17.13;;;9.93;;
59300;SDS011;45073;52.740;6.784;2022-07-09T05:29:35;17.25;;;12.98;;
59300;SDS011;45073;52.740;6.784;2022-07-09T05:32:01;16.58;;;9.30;;
59300;SDS011;45073;52.740;6.784;2022-07-09T05:34:27;21.17;;;12.85;;
59300;SDS011;45073;52.740;6.784;2022-07-09T05:36:53;20.08;;;11.98;;
59300;SDS011;45073;52.740;6.784;2022-07-09T05:39:22;21.27;;;12.38;;
59300;SDS011;45073;52.740;6.784;2022-07-09T05:41:48;17.30;;;12.38;;
59300;SDS011;45073;52.740;6.784;2022-07-09T05:44:14;17.48;;;11.43;;
59300;SDS011;45073;52.740;6.784;2022-07-09T05:46:40;18.50;;;11.85;;
59300;SDS011;45073;52.740;6.784;2022-07-09T05:49:06;17.10;;;9.50;;
59300;SDS011;45073;52.740;6.784;2022-07-09T05:51:32;18.85;;;11.27;;
59300;SDS011;45073;52.740;6.784;2022-07-09T05:53:58;18.48;;;11.32;;
59300;SDS011;45073;52.740;6.784;2022-07-09T05:56:24;14.75;;;10.65;;
59300;SDS011;45073;52.740;6.784;2022-07-09T05:58:50;14.68;;;8.55;;
59300;SDS011;45073;52.740;6.784;2022-07-09T06:01:17;16.77;;;10.82;;
59300;SDS011;45073;52.740;6.784;2022-07-09T06:03:43;15.00;;;10.05;;
59300;SDS011;45073;52.740;6.784;2022-07-09T06:06:08;14.52;;;10.20;;
59300;SDS011;45073;52.740;6.784;2022-07-09T06:08:34;15.38;;;9.48;;
59300;SDS011;45073;52.740;6.784;2022-07-09T06:11:01;16.13;;;9.35;;
59300;SDS011;45073;52.740;6.784;2022-07-09T06:13:27;14.10;;;8.80;;
59300;SDS011;45073;52.740;6.784;2022-07-09T06:15:52;15.40;;;8.85;;
59300;SDS011;45073;52.740;6.784;2022-07-09T06:18:18;15.57;;;8.52;;
59300;SDS011;45073;52.740;6.784;2022-07-09T06:20:44;15.45;;;8.35;;
59300;SDS011;45073;52.740;6.784;2022-07-09T06:23:10;12.75;;;7.43;;
59300;SDS011;45073;52.740;6.784;2022-07-09T06:25:37;13.00;;;7.78;;
59300;SDS011;45073;52.740;6.784;2022-07-09T06:28:03;13.98;;;8.00;;
59300;SDS011;45073;52.740;6.784;2022-07-09T06:30:29;11.18;;;5.72;;
59300;SDS011;45073;52.740;6.784;2022-07-09T06:32:55;12.75;;;7.25;;
59300;SDS011;45073;52.740;6.784;2022-07-09T06:35:21;12.57;;;6.70;;
59300;SDS011;45073;52.740;6.784;2022-07-09T06:37:47;12.90;;;7.38;;
59300;SDS011;45073;52.740;6.784;2022-07-09T06:40:12;10.88;;;6.63;;
59300;SDS011;45073;52.740;6.784;2022-07-09T06:42:38;13.02;;;6.10;;
59300;SDS011;45073;52.740;6.784;2022-07-09T06:45:04;11.50;;;6.25;;
59300;SDS011;45073;52.740;6.784;2022-07-09T06:47:30;9.45;;;6.00;;
59300;SDS011;45073;52.740;6.784;2022-07-09T06:49:55;11.18;;;5.80;;
59300;SDS011;45073;52.740;6.784;2022-07-09T06:52:21;9.18;;;5.53;;
59300;SDS011;45073;52.740;6.784;2022-07-09T06:54:47;9.77;;;4.63;;
59300;SDS011;45073;52.740;6.784;2022-07-09T06:57:12;12.38;;;5.18;;
59300;SDS011;45073;52.740;6.784;2022-07-09T06:59:39;11.40;;;5.25;;
59300;SDS011;45073;52.740;6.784;2022-07-09T07:02:04;10.65;;;4.88;;
59300;SDS011;45073;52.740;6.784;2022-07-09T07:04:30;9.77;;;4.35;;
59300;SDS011;45073;52.740;6.784;2022-07-09T07:06:56;9.77;;;5.07;;
59300;SDS011;45073;52.740;6.784;2022-07-09T07:09:21;10.63;;;5.00;;
59300;SDS011;45073;52.740;6.784;2022-07-09T07:11:49;9.27;;;5.03;;
59300;SDS011;45073;52.740;6.784;2022-07-09T07:14:16;9.70;;;4.70;;
59300;SDS011;45073;52.740;6.784;2022-07-09T07:16:42;8.38;;;4.57;;
59300;SDS011;45073;52.740;6.784;2022-07-09T07:19:08;8.57;;;4.13;;
59300;SDS011;45073;52.740;6.784;2022-07-09T07:21:35;10.80;;;4.68;;
59300;SDS011;45073;52.740;6.784;2022-07-09T07:24:01;10.63;;;4.43;;
59300;SDS011;45073;52.740;6.784;2022-07-09T07:26:27;10.30;;;4.50;;
59300;SDS011;45073;52.740;6.784;2022-07-09T07:28:53;9.88;;;4.22;;
59300;SDS011;45073;52.740;6.784;2022-07-09T07:31:19;9.55;;;4.63;;
59300;SDS011;45073;52.740;6.784;2022-07-09T07:33:45;10.00;;;4.78;;
59300;SDS011;45073;52.740;6.784;2022-07-09T07:36:10;9.38;;;4.32;;
59300;SDS011;45073;52.740;6.784;2022-07-09T07:38:36;10.05;;;4.65;;
59300;SDS011;45073;52.740;6.784;2022-07-09T07:41:01;9.93;;;4.60;;
59300;SDS011;45073;52.740;6.784;2022-07-09T07:43:27;9.35;;;4.22;;
59300;SDS011;45073;52.740;6.784;2022-07-09T07:45:52;9.13;;;4.28;;
59300;SDS011;45073;52.740;6.784;2022-07-09T07:48:18;8.50;;;4.15;;
59300;SDS011;45073;52.740;6.784;2022-07-09T07:50:44;9.88;;;3.80;;
59300;SDS011;45073;52.740;6.784;2022-07-09T07:53:09;8.48;;;4.20;;
59300;SDS011;45073;52.740;6.784;2022-07-09T07:55:35;8.05;;;3.78;;
59300;SDS011;45073;52.740;6.784;2022-07-09T07:58:00;7.85;;;3.42;;
59300;SDS011;45073;52.740;6.784;2022-07-09T08:00:26;8.35;;;4.07;;
59300;SDS011;45073;52.740;6.784;2022-07-09T08:02:52;9.52;;;3.72;;
59300;SDS011;45073;52.740;6.784;2022-07-09T08:05:18;8.05;;;3.75;;
59300;SDS011;45073;52.740;6.784;2022-07-09T08:07:43;7.60;;;3.80;;
59300;SDS011;45073;52.740;6.784;2022-07-09T08:10:09;9.88;;;4.03;;
59300;SDS011;45073;52.740;6.784;2022-07-09T08:12:34;7.90;;;3.47;;
59300;SDS011;45073;52.740;6.784;2022-07-09T08:15:00;10.32;;;4.30;;
59300;SDS011;45073;52.740;6.784;2022-07-09T08:17:26;9.57;;;4.13;;
59300;SDS011;45073;52.740;6.784;2022-07-09T08:19:51;10.85;;;4.13;;
59300;SDS011;45073;52.740;6.784;2022-07-09T08:22:17;8.68;;;3.40;;
59300;SDS011;45073;52.740;6.784;2022-07-09T08:24:43;9.68;;;3.40;;
59300;SDS011;45073;52.740;6.784;2022-07-09T08:27:08;8.18;;;3.40;;
59300;SDS011;45073;52.740;6.784;2022-07-09T08:29:34;7.85;;;3.28;;
59300;SDS011;45073;52.740;6.784;2022-07-09T08:32:00;9.63;;;3.78;;
59300;SDS011;45073;52.740;6.784;2022-07-09T08:34:25;7.90;;;3.38;;
59300;SDS011;45073;52.740;6.784;2022-07-09T08:36:51;9.55;;;3.20;;
59300;SDS011;45073;52.740;6.784;2022-07-09T08:39:17;8.27;;;2.80;;
59300;SDS011;45073;52.740;6.784;2022-07-09T08:41:43;8.05;;;2.95;;
59300;SDS011;45073;52.740;6.784;2022-07-09T08:44:11;8.15;;;3.10;;
59300;SDS011;45073;52.740;6.784;2022-07-09T08:46:38;8.88;;;3.15;;
59300;SDS011;45073;52.740;6.784;2022-07-09T08:49:04;6.95;;;2.50;;
59300;SDS011;45073;52.740;6.784;2022-07-09T08:51:33;8.75;;;2.58;;
59300;SDS011;45073;52.740;6.784;2022-07-09T08:54:00;9.05;;;2.40;;
59300;SDS011;45073;52.740;6.784;2022-07-09T08:56:27;6.53;;;2.40;;
59300;SDS011;45073;52.740;6.784;2022-07-09T08:58:52;6.93;;;2.20;;
59300;SDS011;45073;52.740;6.784;2022-07-09T09:01:18;7.93;;;2.30;;
59300;SDS011;45073;52.740;6.784;2022-07-09T09:03:43;6.35;;;2.28;;
59300;SDS011;45073;52.740;6.784;2022-07-09T09:06:10;6.55;;;2.17;;
59300;SDS011;45073;52.740;6.784;2022-07-09T09:08:44;7.90;;;2.88;;
59300;SDS011;45073;52.740;6.784;2022-07-09T09:11:14;6.82;;;2.83;;
59300;SDS011;45073;52.740;6.784;2022-07-09T09:13:45;6.68;;;2.42;;
59300;SDS011;45073;52.740;6.784;2022-07-09T09:16:12;6.93;;;2.20;;
59300;SDS011;45073;52.740;6.784;2022-07-09T09:18:42;5.93;;;2.15;;
59300;SDS011;45073;52.740;6.784;2022-07-09T09:21:10;8.07;;;2.10;;
59300;SDS011;45073;52.740;6.784;2022-07-09T09:23:44;7.07;;;2.50;;
59300;SDS011;45073;52.740;6.784;2022-07-09T09:26:14;7.10;;;2.17;;
59300;SDS011;45073;52.740;6.784;2022-07-09T09:28:57;6.03;;;1.98;;
59300;SDS011;45073;52.740;6.784;2022-07-09T09:31:28;5.75;;;1.83;;
59300;SDS011;45073;52.740;6.784;2022-07-09T09:34:11;4.95;;;1.77;;
59300;SDS011;45073;52.740;6.784;2022-07-09T09:36:39;5.80;;;1.85;;
59300;SDS011;45073;52.740;6.784;2022-07-09T09:39:14;5.50;;;1.70;;
59300;SDS011;45073;52.740;6.784;2022-07-09T09:41:52;3.33;;;1.65;;
59300;SDS011;45073;52.740;6.784;2022-07-09T09:46:51;5.93;;;1.60;;
59300;SDS011;45073;52.740;6.784;2022-07-09T09:49:21;4.25;;;1.50;;
59300;SDS011;45073;52.740;6.784;2022-07-09T09:54:19;4.85;;;1.65;;
59300;SDS011;45073;52.740;6.784;2022-07-09T09:56:46;8.05;;;2.00;;
59300;SDS011;45073;52.740;6.784;2022-07-09T09:59:13;6.13;;;2.05;;
59300;SDS011;45073;52.740;6.784;2022-07-09T10:01:40;3.90;;;1.63;;
59300;SDS011;45073;52.740;6.784;2022-07-09T10:04:06;5.65;;;1.70;;
59300;SDS011;45073;52.740;6.784;2022-07-09T10:06:33;4.03;;;1.58;;
59300;SDS011;45073;52.740;6.784;2022-07-09T10:09:00;4.03;;;1.58;;
59300;SDS011;45073;52.740;6.784;2022-07-09T10:11:37;5.82;;;1.65;;
59300;SDS011;45073;52.740;6.784;2022-07-09T10:14:07;5.10;;;1.70;;
59300;SDS011;45073;52.740;6.784;2022-07-09T10:16:39;5.20;;;1.60;;
59300;SDS011;45073;52.740;6.784;2022-07-09T10:19:05;4.15;;;1.40;;
59300;SDS011;45073;52.740;6.784;2022-07-09T10:21:35;3.72;;;1.30;;
59300;SDS011;45073;52.740;6.784;2022-07-09T10:24:05;5.82;;;1.40;;
59300;SDS011;45073;52.740;6.784;2022-07-09T10:26:43;5.40;;;1.52;;
59300;SDS011;45073;52.740;6.784;2022-07-09T10:31:47;4.55;;;1.38;;
59300;SDS011;45073;52.740;6.784;2022-07-09T10:34:23;5.28;;;1.30;;
59300;SDS011;45073;52.740;6.784;2022-07-09T10:37:05;5.47;;;1.30;;
59300;SDS011;45073;52.740;6.784;2022-07-09T10:39:31;5.32;;;1.40;;
59300;SDS011;45073;52.740;6.784;2022-07-09T10:42:04;5.50;;;1.48;;
59300;SDS011;45073;52.740;6.784;2022-07-09T10:44:34;7.30;;;1.50;;
59300;SDS011;45073;52.740;6.784;2022-07-09T10:47:01;6.53;;;1.50;;
59300;SDS011;45073;52.740;6.784;2022-07-09T10:49:28;8.60;;;1.70;;
59300;SDS011;45073;52.740;6.784;2022-07-09T10:51:57;5.15;;;1.33;;
59300;SDS011;45073;52.740;6.784;2022-07-09T10:54:23;7.45;;;1.58;;
59300;SDS011;45073;52.740;6.784;2022-07-09T10:56:49;7.95;;;1.60;;
59300;SDS011;45073;52.740;6.784;2022-07-09T10:59:16;8.02;;;1.40;;
59300;SDS011;45073;52.740;6.784;2022-07-09T11:01:45;7.28;;;1.52;;
59300;SDS011;45073;52.740;6.784;2022-07-09T11:04:11;6.22;;;1.50;;
59300;SDS011;45073;52.740;6.784;2022-07-09T11:06:44;6.40;;;1.42;;
59300;SDS011;45073;52.740;6.784;2022-07-09T11:09:11;8.40;;;1.52;;
59300;SDS011;45073;52.740;6.784;2022-07-09T11:11:44;7.55;;;1.50;;
59300;SDS011;45073;52.740;6.784;2022-07-09T11:14:12;5.50;;;1.10;;
59300;SDS011;45073;52.740;6.784;2022-07-09T11:16:38;7.38;;;1.48;;
59300;SDS011;45073;52.740;6.784;2022-07-09T11:19:17;6.07;;;1.45;;
59300;SDS011;45073;52.740;6.784;2022-07-09T11:21:44;7.18;;;1.58;;
59300;SDS011;45073;52.740;6.784;2022-07-09T11:24:17;6.47;;;1.50;;
59300;SDS011;45073;52.740;6.784;2022-07-09T11:26:47;7.00;;;1.50;;
59300;SDS011;45073;52.740;6.784;2022-07-09T11:29:16;6.43;;;1.25;;
59300;SDS011;45073;52.740;6.784;2022-07-09T11:31:46;6.85;;;1.52;;
59300;SDS011;45073;52.740;6.784;2022-07-09T11:34:13;6.93;;;1.48;;
59300;SDS011;45073;52.740;6.784;2022-07-09T11:36:40;6.35;;;1.30;;
59300;SDS011;45073;52.740;6.784;2022-07-09T11:39:09;5.63;;;1.40;;
59300;SDS011;45073;52.740;6.784;2022-07-09T11:41:46;7.72;;;2.10;;
59300;SDS011;45073;52.740;6.784;2022-07-09T11:44:18;6.90;;;1.80;;
59300;SDS011;45073;52.740;6.784;2022-07-09T11:49:37;8.18;;;2.47;;
59300;SDS011;45073;52.740;6.784;2022-07-09T11:52:19;6.80;;;1.48;;
59300;SDS011;45073;52.740;6.784;2022-07-09T11:57:30;11.15;;;3.05;;
59300;SDS011;45073;52.740;6.784;2022-07-09T11:59:57;14.32;;;3.08;;
59300;SDS011;45073;52.740;6.784;2022-07-09T12:02:29;13.10;;;2.70;;
59300;SDS011;45073;52.740;6.784;2022-07-09T12:04:59;7.43;;;1.83;;
59300;SDS011;45073;52.740;6.784;2022-07-09T12:07:26;6.35;;;1.85;;
59300;SDS011;45073;52.740;6.784;2022-07-09T12:09:59;8.75;;;1.92;;
59300;SDS011;45073;52.740;6.784;2022-07-09T12:12:27;7.88;;;1.90;;
59300;SDS011;45073;52.740;6.784;2022-07-09T12:14:53;7.85;;;1.77;;
59300;SDS011;45073;52.740;6.784;2022-07-09T12:17:28;7.30;;;1.77;;
59300;SDS011;45073;52.740;6.784;2022-07-09T12:19:55;10.48;;;2.22;;
59300;SDS011;45073;52.740;6.784;2022-07-09T12:22:21;8.23;;;1.40;;
59300;SDS011;45073;52.740;6.784;2022-07-09T12:24:53;7.80;;;2.03;;
59300;SDS011;45073;52.740;6.784;2022-07-09T12:27:19;9.40;;;1.65;;
59300;SDS011;45073;52.740;6.784;2022-07-09T12:29:45;7.55;;;1.60;;
59300;SDS011;45073;52.740;6.784;2022-07-09T12:32:12;7.60;;;1.70;;
59300;SDS011;45073;52.740;6.784;2022-07-09T12:34:38;6.82;;;1.83;;
59300;SDS011;45073;52.740;6.784;2022-07-09T12:37:04;8.48;;;2.03;;
59300;SDS011;45073;52.740;6.784;2022-07-09T12:39:30;8.48;;;1.80;;
59300;SDS011;45073;52.740;6.784;2022-07-09T12:41:55;7.30;;;1.77;;
59300;SDS011;45073;52.740;6.784;2022-07-09T12:44:21;8.13;;;1.70;;
59300;SDS011;45073;52.740;6.784;2022-07-09T12:46:47;8.50;;;1.80;;
59300;SDS011;45073;52.740;6.784;2022-07-09T12:49:12;7.68;;;1.70;;
59300;SDS011;45073;52.740;6.784;2022-07-09T12:51:38;7.63;;;1.85;;
59300;SDS011;45073;52.740;6.784;2022-07-09T12:54:03;8.27;;;1.90;;
59300;SDS011;45073;52.740;6.784;2022-07-09T12:56:29;10.00;;;1.65;;
59300;SDS011;45073;52.740;6.784;2022-07-09T12:58:55;9.52;;;1.67;;
59300;SDS011;45073;52.740;6.784;2022-07-09T13:01:20;5.50;;;1.27;;
59300;SDS011;45073;52.740;6.784;2022-07-09T13:03:46;8.63;;;1.73;;
59300;SDS011;45073;52.740;6.784;2022-07-09T13:06:11;6.85;;;1.63;;
59300;SDS011;45073;52.740;6.784;2022-07-09T13:08:56;9.73;;;1.80;;
59300;SDS011;45073;52.740;6.784;2022-07-09T13:11:24;6.82;;;1.50;;
59300;SDS011;45073;52.740;6.784;2022-07-09T13:13:50;5.68;;;1.40;;
59300;SDS011;45073;52.740;6.784;2022-07-09T13:16:16;7.82;;;1.52;;
59300;SDS011;45073;52.740;6.784;2022-07-09T13:18:41;8.55;;;1.95;;
59300;SDS011;45073;52.740;6.784;2022-07-09T13:21:07;5.78;;;1.30;;
59300;SDS011;45073;52.740;6.784;2022-07-09T13:23:33;7.00;;;1.50;;
59300;SDS011;45073;52.740;6.784;2022-07-09T13:25:59;4.65;;;1.40;;
59300;SDS011;45073;52.740;6.784;2022-07-09T13:28:25;7.22;;;1.30;;
59300;SDS011;45073;52.740;6.784;2022-07-09T13:30:50;7.18;;;1.60;;
59300;SDS011;45073;52.740;6.784;2022-07-09T13:33:16;6.18;;;1.20;;
59300;SDS011;45073;52.740;6.784;2022-07-09T13:35:42;5.32;;;1.10;;
59300;SDS011;45073;52.740;6.784;2022-07-09T13:38:07;7.63;;;1.42;;
59300;SDS011;45073;52.740;6.784;2022-07-09T13:40:33;6.55;;;1.30;;
59300;SDS011;45073;52.740;6.784;2022-07-09T13:42:59;4.05;;;1.10;;
59300;SDS011;45073;52.740;6.784;2022-07-09T13:45:24;5.25;;;1.20;;
59300;SDS011;45073;52.740;6.784;2022-07-09T13:47:52;5.05;;;1.48;;
59300;SDS011;45073;52.740;6.784;2022-07-09T13:50:18;4.60;;;1.10;;
59300;SDS011;45073;52.740;6.784;2022-07-09T13:52:44;7.85;;;1.80;;
59300;SDS011;45073;52.740;6.784;2022-07-09T13:55:09;6.18;;;1.30;;
59300;SDS011;45073;52.740;6.784;2022-07-09T13:57:35;5.10;;;1.02;;
59300;SDS011;45073;52.740;6.784;2022-07-09T14:00:00;7.25;;;1.40;;
59300;SDS011;45073;52.740;6.784;2022-07-09T14:02:26;8.25;;;1.50;;
59300;SDS011;45073;52.740;6.784;2022-07-09T14:04:52;7.25;;;1.50;;
59300;SDS011;45073;52.740;6.784;2022-07-09T14:07:19;5.93;;;1.20;;
59300;SDS011;45073;52.740;6.784;2022-07-09T14:09:45;6.30;;;1.50;;
59300;SDS011;45073;52.740;6.784;2022-07-09T14:12:10;5.78;;;1.25;;
59300;SDS011;45073;52.740;6.784;2022-07-09T14:14:36;9.38;;;1.50;;
59300;SDS011;45073;52.740;6.784;2022-07-09T14:17:01;6.90;;;1.40;;
59300;SDS011;45073;52.740;6.784;2022-07-09T14:19:27;6.97;;;1.30;;
59300;SDS011;45073;52.740;6.784;2022-07-09T14:21:53;6.25;;;1.27;;
59300;SDS011;45073;52.740;6.784;2022-07-09T14:24:18;6.05;;;1.20;;
59300;SDS011;45073;52.740;6.784;2022-07-09T14:26:44;7.65;;;1.40;;
59300;SDS011;45073;52.740;6.784;2022-07-09T14:29:12;6.93;;;1.67;;
59300;SDS011;45073;52.740;6.784;2022-07-09T14:31:39;8.98;;;1.42;;
59300;SDS011;45073;52.740;6.784;2022-07-09T14:34:04;7.55;;;1.70;;
59300;SDS011;45073;52.740;6.784;2022-07-09T14:36:30;6.68;;;1.40;;
59300;SDS011;45073;52.740;6.784;2022-07-09T14:38:56;8.25;;;1.45;;
59300;SDS011;45073;52.740;6.784;2022-07-09T14:41:21;6.40;;;1.58;;
59300;SDS011;45073;52.740;6.784;2022-07-09T14:43:47;6.85;;;1.48;;
59300;SDS011;45073;52.740;6.784;2022-07-09T14:46:13;5.25;;;1.20;;
59300;SDS011;45073;52.740;6.784;2022-07-09T14:48:39;6.18;;;1.52;;